Tiempo atmosférico en la estación meteorológica de Cañaveral, Cáceres (373 m.)



Fecha
DESCASC
Temp. máxima en grados centígrados (hora)
DESCASC
Temp. mínima en grados centígrados (hora)
DESCASC
Temp. media en grados centígrados
DESCASC
Racha de viento máxima en m/sg (hora)
DESCASC
Velocidad máxima media en intervalos de 10 minutos(hora)
DESCASC
Precipitaciones diarias en mm
DESCASC
Precipitaciones de 00:00 a 06:00 en mm
DESCASC
Precipitaciones de 06:00 a 12:00 en mm
DESCASC
Precipitaciones de 12:00 a 18:00 en mm
DESCASC
Precipitaciones de 18:00 a 24:00 en mm
DESCASC
05-04-2020 18.2 (17:40) 11.6 (08:10) 14.9 10 (11:20) 6.67 (13:40) 2.4 0 0 0 2.4
04-04-2020 18.5 (14:30) 9.2 (07:40) 13.8 10 (18:10) 6.67 (14:50) 0 0 0 0 0
03-04-2020 19.8 (16:20) 7.4 (08:40) 13.6 9.44 (00:30) 7.22 (00:20) 0 0 0 0 0
02-04-2020 17.9 (16:50) 6.7 (00:00) 12.3 9.17 (22:40) 6.39 (22:40) 0 0 0 0 0
01-04-2020 14.2 (18:00) 3.6 (00:00) 8.9 7.22 (19:20) 4.72 (19:20) 0 0 0 0 0
31-03-2020 11 (16:30) 3.6 (00:00) 7.3 16.67 (04:50) 10.83 (02:00) 10.8 0.6 8.6 1.6 0
30-03-2020 13.3 (00:00) 4.6 (00:00) 9 15.56 (22:40) 10 (23:40) 1.6 0 0 0.4 1.2
29-03-2020 19.6 (17:40) 6.1 (00:00) 12.9 5.83 (15:50) 3.61 (15:30) 0 0 0 0 0
28-03-2020 16.9 (17:40) 6.1 (00:00) 11.5 13.06 (09:00) 8.33 (11:00) 0 0 0 0 0
27-03-2020 13 (16:00) 6.3 (00:00) 9.7 14.44 (11:20) 10 (12:30) 0 0 0 0 0
26-03-2020 20.3 (16:40) 10.4 (00:00) 15.3 13.61 (00:10) 8.06 (00:40) 0 0 0 0 0
25-03-2020 20.1 (16:50) 8.6 (00:00) 14.4 14.72 (22:00) 10 (22:00) 0 0 0 0 0
24-03-2020 17 (16:50) 10.5 (00:00) 13.8 15.56 (12:00) 10 (12:00) 0 0 0 0 0
23-03-2020 16.4 (15:20) 8.4 (00:00) 12.4 13.06 (15:30) 8.89 (15:30) 0.2 0 0.2 0 0
22-03-2020 16.4 (17:20) 6.9 (06:30) 11.6 7.78 (10:10) 4.72 (10:10) 1.2 0 0 0 1.2
21-03-2020 12.6 (17:30) 7.7 (00:00) 10.2 12.5 (00:20) 8.61 (00:20) 18.6 10.6 6.4 1.4 0.2
20-03-2020 13.9 (00:00) 9.7 (00:00) 11.8 13.89 (05:00) 7.78 (08:00) 23.8 0 6.4 6 11.4
19-03-2020 16.2 (16:40) 10.4 (00:00) 13.3 14.72 (15:10) 9.44 (15:00) 0 0 0 0 0
18-03-2020 17.3 (13:40) 12.2 (00:00) 14.7 18.61 (10:50) 12.5 (12:30) 0 0 0 0 0
17-03-2020 16.7 (17:50) 4.8 (00:00) 10.8 15.28 (14:20) 9.17 (12:00) 0 0 0 0 0
16-03-2020 10 (12:10) 4.8 (00:00) 7.4 17.78 (14:30) 12.22 (13:40) 1.6 0 0 0.8 0.8
15-03-2020 21.7 (14:10) 7.2 (00:00) 14.5 15 (18:30) 10.28 (16:00) 0 0 0 0 0
14-03-2020 23.2 (17:10) 11.5 (00:00) 17.4 15.28 (04:00) 10.83 (02:50) 0 0 0 0 0
13-03-2020 21.6 (17:10) 10.3 (07:00) 16 12.22 (23:59) 8.89 (23:59) 0 0 0 0 0
12-03-2020 25.6 (16:10) 14.8 (00:00) 20.2 5.83 (05:20) 3.61 (04:00) 0 0 0 0 0
11-03-2020 24.6 (15:20) 10.8 (00:00) 17.7 5 (15:20) 3.06 (08:20) 0 0 0 0 0
10-03-2020 23.7 (17:20) 7.3 (00:00) 15.5 12.22 (00:30) 9.17 (00:40) 0 0 0 0 0

Gráficas

Temp. máximas Temp. mínimas Temp. medias Precipitaciones Rachas de viento máximas Velocidades máximas media en intervalos de 10 minutos

Datos horarios

Fecha y hora oficial Temperatura (ºC) Velocidad del viento (km/h) Dirección del viento Racha (km/h) Dirección de racha Precipitación (mm) Presión (hPa) Tendencia (hPa) Humedad (%)
2020-04-08 23:00:00 17.4 0 Calma 8 Nordeste 0 -- -- 78
2020-04-08 22:00:00 18 0 Calma 4 Nordeste 0 -- -- 77
2020-04-08 21:00:00 19 2 Noroeste 4 Norte 0 -- -- 74
2020-04-08 20:00:00 20.5 2 Norte 8 Oeste 0 -- -- 67
2020-04-08 19:00:00 21.3 4 Sudoeste 12 Sur 0 -- -- 62
2020-04-08 18:00:00 21.5 5 Sudeste 13 Sur 0 -- -- 63
2020-04-08 17:00:00 21.4 7 Sudeste 14 Sudeste 0 -- -- 64
2020-04-08 16:00:00 20.8 5 Este 14 Este 0 -- -- 68
2020-04-08 15:00:00 20.1 8 Sudeste 15 Sudeste 0 -- -- 69
2020-04-08 14:00:00 19.5 10 Sudeste 22 Sudeste 0 -- -- 76
2020-04-08 13:00:00 18.5 13 Sudeste 20 Este 0 -- -- 84
2020-04-08 12:00:00 16.4 12 Este 19 Este 0 -- -- 89
2020-04-08 11:00:00 14.9 11 Este 19 Este 0 -- -- 97
2020-04-08 10:00:00 13.7 7 Este 12 Nordeste 0 -- -- 98
2020-04-08 09:00:00 12.2 11 Nordeste 14 Nordeste 0 -- -- 98
2020-04-08 08:00:00 11.8 6 Este 10 Este 0 -- -- 96
2020-04-08 07:00:00 13.2 0 Calma 10 Nordeste 0 -- -- 95
2020-04-08 06:00:00 13 8 Nordeste 9 Nordeste 0 -- -- 95
2020-04-08 05:00:00 13.4 3 Nordeste 5 Nordeste 0 -- -- 96
2020-04-08 04:00:00 13.1 0 Calma 8 Nordeste 0 -- -- 92
2020-04-08 03:00:00 14.5 5 Nordeste 8 Nordeste 0 -- -- 92
2020-04-08 02:00:00 14.5 6 Nordeste 10 Nordeste 0 -- -- 91
2020-04-08 01:00:00 14.5 8 Nordeste 13 Nordeste 0 -- -- 91
2020-04-08 00:00:00 14.7 7 Nordeste 11 Este 0 -- -- 89
2020-04-07 23:00:00 15.2 6 Nordeste 9 Nordeste 0 -- -- 88
2020-04-07 22:00:00 15.2 7 Nordeste 10 Nordeste 0 -- -- 86
2020-04-07 21:00:00 16.5 4 Sudeste 10 Sudeste 0 -- -- 83
2020-04-07 20:00:00 18 5 Sur 12 Sur 0 -- -- 78
2020-04-07 19:00:00 18 7 Sur 14 Sur 0 -- -- 81
2020-04-07 18:00:00 17.3 8 Sur 17 Sudoeste 0 -- -- 90
2020-04-07 17:00:00 15.9 15 Sudoeste 25 Sudoeste 0 -- -- 95
2020-04-07 16:00:00 15.6 11 Oeste 24 Sudoeste 2.4 -- -- 95
2020-04-07 15:00:00 16.6 12 Sur 24 Sudoeste 0.8 -- -- 87
2020-04-07 14:00:00 15.9 5 Este 10 Sudeste 0 -- -- 95
2020-04-07 13:00:00 14.6 7 Sudeste 20 Sudeste 0.8 -- -- 97
2020-04-07 12:00:00 14.1 9 Sudeste 21 Sudeste 1.6 -- -- 97
2020-04-07 11:00:00 13.9 12 Sudeste 23 Sudeste 1 -- -- 97
2020-04-07 10:00:00 13.4 13 Este 19 Este 1.2 -- -- 97
2020-04-07 09:00:00 12.9 11 Este 19 Este 2 -- -- 97
2020-04-07 08:00:00 12.7 13 Este 21 Este 2.2 -- -- 96
2020-04-07 07:00:00 12.9 14 Este 24 Este 1.8 -- -- 96
2020-04-07 06:00:00 13.1 13 Este 25 Este 0.8 -- -- 96
2020-04-07 05:00:00 13.1 15 Este 24 Este 0 -- -- 95
2020-04-07 04:00:00 12.9 10 Este 20 Este 0.6 -- -- 93
2020-04-07 03:00:00 13.1 12 Nordeste 18 Este 0 -- -- 94
2020-04-07 02:00:00 13.2 10 Nordeste 16 Este 0.8 -- -- 95
2020-04-07 01:00:00 13.2 6 Este 14 Este 1 -- -- 95
2020-04-07 00:00:00 13.1 10 Este 15 Este 0 -- -- 94
2020-04-06 23:00:00 13.2 6 Nordeste 11 Nordeste 0.6 -- -- 93
2020-04-06 22:00:00 13.6 5 Nordeste 9 Este 0.8 -- -- 93
2020-04-06 21:00:00 14.1 2 Sur 6 Oeste 0.8 -- -- 90
2020-04-06 20:00:00 14.7 6 Oeste 13 Sudoeste 0.4 -- -- 89
2020-04-06 19:00:00 15.4 6 Sur 15 Sur 0.2 -- -- 86
2020-04-06 18:00:00 16.1 10 Sur 22 Sudoeste 0 -- -- 80
2020-04-06 17:00:00 17.4 13 Sudoeste 18 Oeste 0 -- -- 72
2020-04-06 16:00:00 17.4 9 Sur 42 Sur 0 -- -- 72
2020-04-06 15:00:00 17.4 8 Sudoeste 19 Sudoeste 0 -- -- 70
2020-04-06 14:00:00 16.2 10 Sudoeste 16 Sudeste 0 -- -- 75
2020-04-06 13:00:00 14.5 9 Sudoeste 13 Sudoeste 0 -- -- 84
2020-04-06 12:00:00 14.2 8 Sudoeste 14 Sudoeste 0 -- -- 82
2020-04-06 11:00:00 13.9 7 Sudoeste 14 Sudoeste 0 -- -- 91
2020-04-06 10:00:00 12.9 3 Sur 6 Sur 0 -- -- 94
2020-04-06 09:00:00 12.1 0 Calma 4 Sudeste 0 -- -- 95
2020-04-06 08:00:00 11.8 3 Sudeste 4 Sudeste 0 -- -- 96
2020-04-06 07:00:00 11.8 3 Sudoeste 8 Sur 0 -- -- 96
2020-04-06 06:00:00 11.9 5 Sur 13 Sudoeste 0 -- -- 95
2020-04-06 05:00:00 12.6 9 Sudoeste 18 Sudoeste 0 -- -- 95
2020-04-06 04:00:00 13.2 10 Sudoeste 18 Sudoeste 0 -- -- 94
2020-04-06 03:00:00 13.8 5 Sudoeste 10 Sudoeste 0 -- -- 94
2020-04-06 02:00:00 13.8 4 Oeste 12 Sudoeste 0.2 -- -- 94
2020-04-06 01:00:00 13.8 9 Sur 17 Sur 0 -- -- 93
2020-04-06 00:00:00 14.2 8 Sur 20 Sur 0 -- -- 94
2020-04-05 23:00:00 14.3 12 Sudoeste 21 Sur 0.2 -- -- 94
2020-04-05 22:00:00 14.3 9 Sur 15 Sur 1 -- -- 93
2020-04-05 21:00:00 14.4 8 Sudeste 17 Sur 0.4 -- -- 91
2020-04-05 20:00:00 14.6 17 Sur 32 Sudoeste 0.4 -- -- 89
2020-04-05 19:00:00 16.8 16 Sur 33 Sur 0.4 -- -- 74
2020-04-05 18:00:00 18 20 Sur 34 Sudoeste 0 -- -- 67
2020-04-05 17:00:00 17.7 16 Sur 32 Sur 0 -- -- 68
2020-04-05 16:00:00 17.2 15 Sur 28 Sur 0 -- -- 69
2020-04-05 15:00:00 16.5 13 Sur 31 Sudeste 0 -- -- 71
2020-04-05 14:00:00 17.2 17 Sudeste 35 Sudeste 0 -- -- 63
2020-04-05 13:00:00 16.3 22 Sudeste 34 Sudeste 0 -- -- 64
2020-04-05 12:00:00 15.2 18 Sudeste 36 Sudeste 0 -- -- 69
2020-04-05 11:00:00 14.1 21 Sudeste 32 Sudeste 0 -- -- 68
2020-04-05 10:00:00 12.7 16 Este 27 Este 0 -- -- 71
2020-04-05 09:00:00 12 12 Sudeste 21 Sudeste 0 -- -- 73
2020-04-05 08:00:00 11.7 7 Este 14 Este 0 -- -- 76
2020-04-05 07:00:00 11.9 3 Nordeste 18 Este 0 -- -- 77
2020-04-05 06:00:00 12.1 12 Este 20 Este 0 -- -- 77
2020-04-05 05:00:00 12.2 4 Nordeste 9 Sudeste 0 -- -- 77
2020-04-05 04:00:00 12.5 4 Este 10 Este 0 -- -- 76
2020-04-05 03:00:00 12.7 4 Sudeste 11 Sudeste 0 -- -- 74
2020-04-05 02:00:00 13 5 Sudeste 18 Sur 0 -- -- 71
2020-04-05 01:00:00 13.1 7 Sudeste 12 Sudeste 0 -- -- 71
2020-04-05 00:00:00 13.1 5 Sudeste 10 Sur 0 -- -- 71
2020-04-04 23:00:00 13.3 8 Sur 15 Sur 0 -- -- 68
2020-04-04 22:00:00 13.9 9 Sur 17 Sur 0 -- -- 64
2020-04-04 21:00:00 15 12 Sur 25 Sur 0 -- -- 58
2020-04-04 20:00:00 16.2 14 Sur 28 Sur 0 -- -- 53
2020-04-04 19:00:00 17.4 15 Sur 36 Sur 0 -- -- 49
2020-04-04 18:00:00 17.9 17 Sur 32 Sur 0 -- -- 50
2020-04-04 17:00:00 17.6 20 Sur 28 Sur 0 -- -- 51
2020-04-04 16:00:00 17.1 19 Sudeste 34 Sur 0 -- -- 52
2020-04-04 15:00:00 18 24 Sur 35 Sur 0 -- -- 46
2020-04-04 14:00:00 17.4 22 Sudeste 35 Sudeste 0 -- -- 51
2020-04-04 13:00:00 16.5 14 Este 25 Este 0 -- -- 60
2020-04-04 12:00:00 15.5 15 Este 27 Este 0 -- -- 62
2020-04-04 11:00:00 14.2 16 Este 28 Este 0 -- -- 63
2020-04-04 10:00:00 12.7 19 Nordeste 27 Este 0 -- -- 64
2020-04-04 09:00:00 10.9 12 Nordeste 18 Nordeste 0 -- -- 67
2020-04-04 08:00:00 9.4 10 Nordeste 19 Nordeste 0 -- -- 68
2020-04-04 07:00:00 9.8 5 Este 23 Nordeste 0 -- -- 65
2020-04-04 06:00:00 10.8 12 Nordeste 24 Norte 0 -- -- 60
2020-04-04 05:00:00 10.1 13 Nordeste 21 Este 0 -- -- 65
2020-04-04 04:00:00 11.6 12 Nordeste 20 Este 0 -- -- 58
2020-04-04 03:00:00 12.1 13 Nordeste 18 Nordeste 0 -- -- 61
2020-04-04 02:00:00 13 11 Nordeste 14 Nordeste 0 -- -- 60
2020-04-04 01:00:00 14.2 10 Nordeste 14 Nordeste 0 -- -- 56
2020-04-04 00:00:00 13.8 11 Norte 13 Nordeste 0 -- -- 56
2020-04-03 23:00:00 15 5 Nordeste 6 Nordeste 0 -- -- 52
2020-04-03 22:00:00 14.7 4 Nordeste 6 Nordeste 0 -- -- 54
2020-04-03 21:00:00 16.8 3 Sudoeste 11 Sudoeste 0 -- -- 49
2020-04-03 20:00:00 18.4 9 Sur 16 Sur 0 -- -- 46
2020-04-03 19:00:00 19.6 9 Sur 18 Sur 0 -- -- 44
2020-04-03 18:00:00 18.6 8 Sudeste 18 Sur 0 -- -- 47
2020-04-03 17:00:00 19.7 10 Sur 21 Sudoeste 0 -- -- 45
2020-04-03 16:00:00 19.6 10 Sur 20 Este 0 -- -- 48
2020-04-03 15:00:00 17.5 5 Este 23 Este 0 -- -- 52
2020-04-03 14:00:00 17.5 10 Sudeste 20 Este 0 -- -- 51
2020-04-03 13:00:00 16.6 13 Este 24 Este 0 -- -- 55
2020-04-03 12:00:00 15.6 14 Este 22 Este 0 -- -- 61
2020-04-03 11:00:00 14.8 9 Este 18 Este 0 -- -- 63
2020-04-03 10:00:00 11.9 5 Sudoeste 12 Nordeste 0 -- -- 71
2020-04-03 09:00:00 9.1 8 Nordeste 12 Nordeste 0 -- -- 75
2020-04-03 08:00:00 9.9 6 Nordeste 17 Norte 0 -- -- 68
2020-04-03 07:00:00 10 13 Norte 19 Norte 0 -- -- 67
2020-04-03 06:00:00 10 6 Noroeste 22 Norte 0 -- -- 70
2020-04-03 05:00:00 10.8 18 Norte 28 Norte 0 -- -- 66
2020-04-03 04:00:00 10.7 15 Norte 24 Norte 0 -- -- 68
2020-04-03 03:00:00 11.1 14 Norte 31 Norte 0 -- -- 66
2020-04-03 02:00:00 11.5 24 Norte 33 Norte 0 -- -- 65
2020-04-03 01:00:00 11.8 19 Norte 34 Norte 0 -- -- 66
2020-04-03 00:00:00 12.1 19 Norte 33 Norte 0 -- -- 65
2020-04-02 23:00:00 12.8 23 Norte 33 Norte 0 -- -- 62
2020-04-02 22:00:00 13 18 Norte 25 Norte 0 -- -- 63
2020-04-02 21:00:00 14.1 14 Norte 24 Norte 0 -- -- 59
2020-04-02 20:00:00 16.8 8 Noroeste 20 Norte 0 -- -- 51
2020-04-02 19:00:00 17.7 12 Oeste 22 Sudoeste 0 -- -- 53
2020-04-02 18:00:00 16.8 12 Noroeste 30 Noroeste 0 -- -- 51
2020-04-02 17:00:00 17 15 Norte 26 Norte 0 -- -- 51
2020-04-02 16:00:00 17.4 13 Norte 31 Norte 0 -- -- 49
2020-04-02 15:00:00 16.6 13 Norte 24 Nordeste 0 -- -- 51
2020-04-02 14:00:00 15.6 14 Norte 24 Nordeste 0 -- -- 56
2020-04-02 13:00:00 14.2 14 Norte 32 Norte 0 -- -- 62
2020-04-02 12:00:00 13 17 Norte 30 Norte 0 -- -- 63
2020-04-02 11:00:00 11.1 15 Norte 30 Norte 0 -- -- 70
2020-04-02 10:00:00 8.7 14 Norte 22 Nordeste 0 -- -- 76
2020-04-02 09:00:00 7.5 8 Norte 21 Norte 0 -- -- 84
2020-04-02 08:00:00 7.6 9 Norte 18 Norte 0 -- -- 83
2020-04-02 07:00:00 8.5 6 Nordeste 12 Nordeste 0 -- -- 81
2020-04-02 06:00:00 8.5 9 Norte 11 Nordeste 0 -- -- 80
2020-04-02 05:00:00 8.8 6 Nordeste 17 Norte 0 -- -- 77
2020-04-02 04:00:00 8.2 13 Norte 22 Norte 0 -- -- 81
2020-04-02 03:00:00 8 19 Norte 26 Norte 0 -- -- 82
2020-04-02 02:00:00 8.1 3 Oeste 22 Oeste 0 -- -- 83
2020-04-02 01:00:00 9.4 6 Nordeste 15 Nordeste 0 -- -- 75
2020-04-02 00:00:00 9.1 7 Nordeste 14 Nordeste 0 -- -- 77
2020-04-01 23:00:00 8.8 9 Nordeste 14 Nordeste 0 -- -- 78
2020-04-01 22:00:00 8.6 6 Nordeste 10 Nordeste 0 -- -- 76
2020-04-01 21:00:00 9.8 0 Calma 17 Sur 0 -- -- 70
2020-04-01 20:00:00 11.6 14 Sur 26 Sur 0 -- -- 60
2020-04-01 19:00:00 12.5 14 Sur 25 Sur 0 -- -- 56
2020-04-01 18:00:00 14.2 12 Sur 25 Sur 0 -- -- 55
2020-04-01 17:00:00 13.2 11 Sudeste 24 Sudeste 0 -- -- 55
2020-04-01 16:00:00 13 8 Sur 21 Sur 0 -- -- 59
2020-04-01 15:00:00 12.6 9 Sur 19 Sur 0 -- -- 60
2020-04-01 14:00:00 11.2 7 Sudoeste 14 Sur 0 -- -- 64
2020-04-01 13:00:00 10.9 9 Sur 17 Sur 0 -- -- 66
2020-04-01 12:00:00 9.9 7 Sur 15 Sudeste 0 -- -- 74
2020-04-01 11:00:00 8.8 6 Sudeste 13 Sudeste 0 -- -- 81
2020-04-01 10:00:00 7 0 Calma 8 Nordeste 0 -- -- 89
2020-04-01 09:00:00 5.1 4 Nordeste 9 Nordeste 0 -- -- 92
2020-04-01 08:00:00 4.9 5 Nordeste 6 Nordeste 0 -- -- 91
2020-04-01 07:00:00 5.1 4 Nordeste 11 Nordeste 0 -- -- 91
2020-04-01 06:00:00 4.6 8 Nordeste 13 Nordeste 0 -- -- 92
2020-04-01 05:00:00 4.4 7 Nordeste 9 Nordeste 0 -- -- 87
2020-04-01 04:00:00 3.8 7 Nordeste 9 Nordeste 0 -- -- 93
2020-04-01 03:00:00 4.9 4 Nordeste 6 Nordeste 0 -- -- 93
2020-04-01 02:00:00 5.2 0 Calma 7 Oeste 0 -- -- 93
2020-04-01 01:00:00 6 6 Oeste 20 Oeste 0 -- -- 92
2020-04-01 00:00:00 7.5 12 Oeste 19 Oeste 0 -- -- 90
2020-03-31 23:00:00 8.1 13 Sudoeste 28 Sudoeste 0 -- -- 92
2020-03-31 22:00:00 9.8 8 Sur 13 Sudeste 0 -- -- 92
2020-03-31 21:00:00 9.9 5 Este 23 Este 0 -- -- 91
2020-03-31 20:00:00 10.1 13 Este 28 Este 0 -- -- 90
2020-03-31 19:00:00 10.4 16 Este 29 Este 0 -- -- 90
2020-03-31 18:00:00 9.7 19 Este 31 Este 0.2 -- -- 90
2020-03-31 17:00:00 10.3 22 Este 35 Este 0 -- -- 84
2020-03-31 16:00:00 10.1 22 Este 39 Este 0 -- -- 86
2020-03-31 15:00:00 8.5 27 Este 40 Este 0 -- -- 91
2020-03-31 14:00:00 7.1 28 Este 53 Este 0.2 -- -- 94
2020-03-31 13:00:00 6.1 29 Este 49 Este 1.2 -- -- 94
2020-03-31 12:00:00 5.5 27 Este 55 Este 0.2 -- -- 93
2020-03-31 11:00:00 4.9 34 Este 57 Este 1.4 -- -- 92
2020-03-31 10:00:00 4.2 34 Este 58 Este 1.6 -- -- 93
2020-03-31 09:00:00 3.9 33 Este 59 Este 1.8 -- -- 92
2020-03-31 08:00:00 3.6 32 Este 54 Este 1.8 -- -- 92
2020-03-31 07:00:00 3.8 33 Este 55 Este 1.8 -- -- 91
2020-03-31 06:00:00 4.1 26 Este 54 Este 0.4 -- -- 89
2020-03-31 05:00:00 4.2 35 Este 60 Nordeste 0 -- -- 85
2020-03-31 04:00:00 4.2 34 Este 58 Este 0 -- -- 84
2020-03-31 03:00:00 4.4 33 Este 55 Este 0.2 -- -- 84
2020-03-31 02:00:00 4.4 39 Este 55 Este 0 -- -- 85
2020-03-31 01:00:00 4.6 31 Nordeste 51 Este 0 -- -- 87
2020-03-31 00:00:00 4.6 34 Este 56 Este 0 -- -- 87
2020-03-30 23:00:00 4.9 31 Este 56 Este 0.2 -- -- 89
2020-03-30 22:00:00 5.2 22 Este 41 Nordeste 0.6 -- -- 89
2020-03-30 21:00:00 5.8 18 Nordeste 46 Este 0.4 -- -- 88
2020-03-30 20:00:00 6.8 22 Este 40 Nordeste 0 -- -- 85
2020-03-30 19:00:00 7.9 27 Nordeste 41 Nordeste 0 -- -- 78
2020-03-30 18:00:00 7.7 19 Norte 40 Norte 0 -- -- 80
2020-03-30 17:00:00 7.8 30 Norte 41 Norte 0.2 -- -- 75
2020-03-30 16:00:00 8.7 26 Norte 40 Norte 0.2 -- -- 70
2020-03-30 15:00:00 9 28 Norte 42 Norte 0 -- -- 74
2020-03-30 14:00:00 9.4 31 Norte 45 Norte 0 -- -- 65
2020-03-30 13:00:00 10.1 27 Norte 44 Norte 0 -- -- 63
2020-03-30 12:00:00 10.9 25 Norte 40 Norte 0 -- -- 61
2020-03-30 11:00:00 10.8 28 Norte 42 Norte 0 -- -- 63
2020-03-30 10:00:00 9.8 28 Norte 42 Norte 0 -- -- 66
2020-03-30 09:00:00 8.9 27 Norte 48 Norte 0 -- -- 67
2020-03-30 08:00:00 8.9 35 Norte 46 Norte 0 -- -- 68
2020-03-30 07:00:00 9.5 31 Norte 42 Norte 0 -- -- 68
2020-03-30 06:00:00 10.5 15 Norte 28 Norte 0 -- -- 67
2020-03-30 05:00:00 11.3 20 Norte 28 Norte 0 -- -- 71
2020-03-30 04:00:00 10.7 3 Sudoeste 10 Sudoeste 0 -- -- 75
2020-03-30 03:00:00 11.2 4 Sudoeste 9 Sudoeste 0 -- -- 71
2020-03-30 02:00:00 11.6 5 Oeste 15 Oeste 0 -- -- 67
2020-03-30 01:00:00 12.1 9 Sudoeste 17 Sudoeste 0 -- -- 68
2020-03-30 00:00:00 13.3 6 Sudoeste 14 Noroeste 0 -- -- 62
2020-03-29 23:00:00 14.5 9 Noroeste 14 Noroeste 0 -- -- 55
2020-03-29 22:00:00 14.7 2 Oeste 6 Oeste 0 -- -- 54
2020-03-29 21:00:00 14.9 5 Oeste 12 Sudoeste 0 -- -- 54
2020-03-29 20:00:00 17.1 7 Sudoeste 18 Sudoeste 0 -- -- 50
2020-03-29 19:00:00 18.7 10 Sudoeste 17 Sudoeste 0 -- -- 44
2020-03-29 18:00:00 19 6 Sur 19 Sudoeste 0 -- -- 38
2020-03-29 17:00:00 18.7 8 Sur 18 Sur 0 -- -- 39
2020-03-29 16:00:00 19.5 10 Sudoeste 21 Sudoeste 0 -- -- 38
2020-03-29 15:00:00 18.3 8 Sudoeste 20 Sudoeste 0 -- -- 47
2020-03-29 14:00:00 18.2 6 Sur 14 Sudeste 0 -- -- 48
2020-03-29 13:00:00 16.9 8 Sur 15 Sur 0 -- -- 55
2020-03-29 12:00:00 15.5 4 Sudeste 11 Sudeste 0 -- -- 53
2020-03-29 11:00:00 13 3 Sudeste 6 Sudeste 0 -- -- 62
2020-03-29 10:00:00 8.3 0 Calma 5 Oeste 0 -- -- 75
2020-03-29 09:00:00 6.6 3 Noroeste 6 Oeste 0 -- -- 75
2020-03-29 08:00:00 7.2 2 Noroeste 10 Norte 0 -- -- 69
2020-03-29 07:00:00 8.2 8 Nordeste 13 Nordeste 0 -- -- 63
2020-03-29 06:00:00 6.3 0 Calma 8 Oeste 0 -- -- 81
2020-03-29 05:00:00 9.5 3 Norte 10 Nordeste 0 -- -- 55
2020-03-29 03:00:00 9.5 4 Nordeste 8 Nordeste 0 -- -- 56
2020-03-29 01:00:00 10.9 3 Noroeste 9 Nordeste 0 -- -- 55
2020-03-29 00:00:00 12.7 6 Nordeste 8 Norte 0 -- -- 51
2020-03-28 23:00:00 12.6 7 Norte 9 Nordeste -- -- -- 55
2020-03-28 22:00:00 12.4 6 Norte 8 Nordeste 0 -- -- 57
2020-03-28 21:00:00 12 3 Nordeste 10 Nordeste 0 -- -- 61
2020-03-28 20:00:00 13.8 7 Nordeste 11 Este 0 -- -- 56
2020-03-28 19:00:00 16.1 4 Este 18 Este 0 -- -- 48
2020-03-28 18:00:00 16.9 10 Este 17 Este 0 -- -- 48
2020-03-28 17:00:00 15.9 10 Este 23 Este 0 -- -- 51
2020-03-28 16:00:00 16.1 11 Este 28 Este 0 -- -- 53
2020-03-28 15:00:00 16.2 12 Este 27 Este 0 -- -- 48
2020-03-28 14:00:00 14.9 15 Este 33 Este 0 -- -- 51
2020-03-28 13:00:00 14 25 Este 44 Este 0 -- -- 51
2020-03-28 12:00:00 13.1 24 Este 42 Este 0 -- -- 54
2020-03-28 11:00:00 11.3 30 Este 44 Este 0 -- -- 62
2020-03-28 10:00:00 9.8 24 Este 43 Nordeste 0 -- -- 64
2020-03-28 09:00:00 8 26 Nordeste 47 Este 0 -- -- 69
2020-03-28 08:00:00 6.7 15 Nordeste 36 Este 0 -- -- 75
2020-03-28 07:00:00 6.3 21 Nordeste 36 Este 0 -- -- 77
2020-03-28 06:00:00 6.5 19 Nordeste 42 Nordeste 0 -- -- 76
2020-03-28 05:00:00 6.4 17 Nordeste 28 Este 0 -- -- 77
2020-03-28 04:00:00 6.1 10 Nordeste 18 Nordeste 0 -- -- 77
2020-03-28 03:00:00 6.3 9 Nordeste 18 Este 0 -- -- 76
2020-03-28 02:00:00 7 14 Nordeste 27 Este 0 -- -- 74
2020-03-28 01:00:00 7.8 11 Nordeste 18 Nordeste 0 -- -- 70
2020-03-28 00:00:00 8.1 12 Nordeste 18 Nordeste 0 -- -- 68
2020-03-27 23:00:00 7.6 13 Nordeste 21 Nordeste -- -- -- 70
2020-03-27 22:00:00 8 13 Nordeste 21 Nordeste 0 -- -- 68
2020-03-27 21:00:00 8.4 12 Nordeste 18 Nordeste 0 -- -- 66
2020-03-27 20:00:00 9.7 15 Este 32 Este 0 -- -- 59
2020-03-27 19:00:00 11.2 22 Este 38 Este 0 -- -- 53
2020-03-27 18:00:00 12.5 23 Este 44 Este 0 -- -- 49
2020-03-27 17:00:00 12.6 32 Este 48 Este 0 -- -- 50
2020-03-27 16:00:00 13 30 Este 52 Nordeste 0 -- -- 51
2020-03-27 15:00:00 12.7 28 Este 50 Este 0 -- -- 55
2020-03-27 14:00:00 12.5 27 Este 48 Este 0 -- -- 57
2020-03-27 13:00:00 12.2 28 Este 51 Este 0 -- -- 58
2020-03-27 12:00:00 11.8 29 Este 52 Este 0 -- -- 58
2020-03-27 11:00:00 11.1 27 Este 50 Este 0 -- -- 58
2020-03-27 10:00:00 9.6 31 Este 49 Este 0 -- -- 57
2020-03-27 09:00:00 8.5 26 Este 39 Este 0 -- -- 57
2020-03-27 08:00:00 7.2 16 Nordeste 28 Nordeste 0 -- -- 60
2020-03-27 07:00:00 6.6 21 Norte 33 Norte 0 -- -- 65
2020-03-27 06:00:00 7.1 22 Norte 31 Norte 0 -- -- 64
2020-03-27 05:00:00 8.3 16 Norte 33 Norte 0 -- -- 56
2020-03-27 04:00:00 9.4 17 Nordeste 27 Nordeste 0 -- -- 52
2020-03-27 03:00:00 10.6 11 Nordeste 18 Nordeste 0 -- -- 51
2020-03-27 02:00:00 9.5 8 Nordeste 12 Noroeste 0 -- -- 76
2020-03-27 01:00:00 9.6 4 Sur 12 Oeste 0 -- -- 75
2020-03-27 00:00:00 10.4 6 Oeste 23 Noroeste 0 -- -- 72
2020-03-26 23:00:00 12.6 13 Noroeste 21 Noroeste 0 -- -- 65
2020-03-26 22:00:00 11.5 12 Sur 19 Oeste 0 -- -- 73
2020-03-26 21:00:00 14.1 13 Sudoeste 27 Oeste 0 -- -- 60
2020-03-26 20:00:00 15.9 18 Oeste 28 Oeste 0 -- -- 50
2020-03-26 19:00:00 18.9 10 Noroeste 26 Norte 0 -- -- 37
2020-03-26 18:00:00 19.6 12 Norte 25 Noroeste 0 -- -- 34
2020-03-26 17:00:00 20.1 11 Noroeste 35 Oeste 0 -- -- 29
2020-03-26 16:00:00 20 15 Noroeste 38 Oeste 0 -- -- 32
2020-03-26 15:00:00 19.2 19 Oeste 40 Oeste 0 -- -- 35
2020-03-26 14:00:00 17.8 14 Noroeste 33 Noroeste 0 -- -- 42
2020-03-26 13:00:00 17.1 21 Noroeste 32 Noroeste 0 -- -- 33
2020-03-26 12:00:00 16.1 13 Noroeste 33 Norte 0 -- -- 42
2020-03-26 11:00:00 15.3 15 Noroeste 27 Noroeste 0 -- -- 52
2020-03-26 10:00:00 14.1 11 Noroeste 27 Norte 0 -- -- 57
2020-03-26 09:00:00 12.6 4 Sudoeste 28 Norte 0 -- -- 63
2020-03-26 08:00:00 11.4 14 Noroeste 22 Noroeste 0 -- -- 66
2020-03-26 07:00:00 11.3 18 Noroeste 26 Noroeste 0 -- -- 67
2020-03-26 06:00:00 11.4 15 Noroeste 24 Noroeste 0 -- -- 67
2020-03-26 05:00:00 11.4 11 Noroeste 25 Noroeste 0 -- -- 67
2020-03-26 04:00:00 12.6 14 Noroeste 26 Norte 0 -- -- 63
2020-03-26 03:00:00 13.4 17 Noroeste 33 Noroeste 0 -- -- 60
2020-03-26 02:00:00 14 25 Noroeste 39 Noroeste 0 -- -- 59
2020-03-26 01:00:00 14.5 19 Noroeste 49 Noroeste 0 -- -- 58
2020-03-26 00:00:00 15.2 27 Noroeste 40 Noroeste 0 -- -- 57
2020-03-25 23:00:00 15.5 23 Noroeste 43 Noroeste -- -- -- 58
2020-03-25 22:00:00 16.1 36 Noroeste 53 Noroeste 0 -- -- 59
2020-03-25 21:00:00 16.4 28 Oeste 39 Oeste 0 -- -- 56
2020-03-25 20:00:00 16.1 21 Oeste 31 Noroeste 0 -- -- 55
2020-03-25 19:00:00 18.2 23 Oeste 32 Oeste 0 -- -- 50
2020-03-25 18:00:00 19.6 20 Oeste 31 Sudoeste 0 -- -- 49
2020-03-25 17:00:00 20.1 20 Sudoeste 28 Oeste 0 -- -- 51
2020-03-25 16:00:00 18.9 18 Sudoeste 30 Sudoeste 0 -- -- 55
2020-03-25 15:00:00 19.6 16 Oeste 27 Sudoeste 0 -- -- 52
2020-03-25 14:00:00 18.3 15 Sudoeste 24 Oeste 0 -- -- 55
2020-03-25 13:00:00 16.9 9 Sudoeste 17 Sudoeste 0 -- -- 57
2020-03-25 12:00:00 15.9 8 Sudoeste 17 Sur 0 -- -- 60
2020-03-25 11:00:00 14.8 8 Sudoeste 13 Sudoeste 0 -- -- 62
2020-03-25 10:00:00 12.9 3 Sur 7 Oeste 0 -- -- 71
2020-03-25 09:00:00 10.6 2 Sur 10 Nordeste 0 -- -- 79
2020-03-25 08:00:00 8.8 6 Nordeste 10 Nordeste 0 -- -- 80
2020-03-25 07:00:00 9.2 5 Nordeste 12 Nordeste 0 -- -- 77
2020-03-25 06:00:00 10.3 6 Nordeste 16 Nordeste 0 -- -- 73
2020-03-25 05:00:00 10.6 9 Nordeste 14 Nordeste 0 -- -- 72
2020-03-25 04:00:00 10.2 8 Nordeste 15 Nordeste 0 -- -- 75
2020-03-25 03:00:00 10.2 10 Nordeste 16 Nordeste 0 -- -- 81
2020-03-25 02:00:00 10.4 6 Nordeste 12 Nordeste 0 -- -- 80
2020-03-25 01:00:00 10.8 9 Este 15 Nordeste 0 -- -- 78
2020-03-25 00:00:00 12.6 12 Nordeste 19 Nordeste 0 -- -- 68
2020-03-24 23:00:00 12.9 12 Nordeste 21 Nordeste 0 -- -- 67
2020-03-24 22:00:00 13.2 14 Nordeste 21 Este 0 -- -- 67
2020-03-24 21:00:00 13.5 13 Este 22 Este 0 -- -- 67
2020-03-24 20:00:00 14.2 12 Nordeste 31 Este 0 -- -- 63
2020-03-24 19:00:00 15.5 16 Este 38 Este -- -- -- 59
2020-03-24 18:00:00 16.6 27 Este 42 Sudeste 0 -- -- 54
2020-03-24 17:00:00 17 24 Este 42 Este 0 -- -- 54
2020-03-24 16:00:00 16.8 26 Este 49 Este 0 -- -- 57
2020-03-24 15:00:00 16.4 28 Este 48 Este 0 -- -- 56
2020-03-24 14:00:00 15 22 Este 42 Este 0 -- -- 62
2020-03-24 13:00:00 15.1 30 Este 54 Este 0 -- -- 60
2020-03-24 12:00:00 14.8 36 Este 56 Este 0 -- -- 60
2020-03-24 11:00:00 14.6 30 Este 55 Este 0 -- -- 62
2020-03-24 10:00:00 12.7 30 Este 53 Nordeste 0 -- -- 69
2020-03-24 09:00:00 12.2 28 Este 44 Este 0 -- -- 71
2020-03-24 08:00:00 11.3 26 Este 37 Este 0 -- -- 75
2020-03-24 07:00:00 11.6 17 Nordeste 46 Este 0 -- -- 72
2020-03-24 06:00:00 11.8 25 Este 38 Este 0 -- -- 72
2020-03-24 05:00:00 11.5 21 Nordeste 40 Este 0 -- -- 75
2020-03-24 04:00:00 11.7 22 Este 38 Nordeste 0 -- -- 74
2020-03-24 03:00:00 11.4 14 Nordeste 37 Este 0 -- -- 76
2020-03-24 02:00:00 10.9 22 Nordeste 35 Nordeste 0 -- -- 79
2020-03-24 01:00:00 10.7 19 Este 33 Este 0 -- -- 80
2020-03-24 00:00:00 10.6 19 Este 36 Este 0 -- -- 80
2020-03-23 23:00:00 11 20 Este 32 Nordeste 0 -- -- 76
2020-03-23 22:00:00 11.6 14 Nordeste 35 Nordeste 0 -- -- 71
2020-03-23 21:00:00 12.8 24 Este 42 Este 0 -- -- 66
2020-03-23 20:00:00 12.6 12 Nordeste 23 Este 0 -- -- 64
2020-03-23 19:00:00 14.5 17 Este 35 Nordeste 0 -- -- 55
2020-03-23 18:00:00 15.3 23 Este 33 Este 0 -- -- 57
2020-03-23 17:00:00 14.5 17 Nordeste 31 Nordeste 0 -- -- 66
2020-03-23 16:00:00 12.5 19 Este 47 Este 0 -- -- 76
2020-03-23 15:00:00 16.2 26 Este 42 Este 0 -- -- 55
2020-03-23 14:00:00 15.3 23 Este 42 Este 0 -- -- 61
2020-03-23 13:00:00 14.1 20 Este 35 Este 0 -- -- 66
2020-03-23 12:00:00 13.8 23 Este 42 Este 0 -- -- 71
2020-03-23 11:00:00 13.1 24 Este 42 Este -- -- -- 74
2020-03-23 10:00:00 12.2 23 Este 38 Este 0 -- -- 77
2020-03-23 09:00:00 10 18 Este 28 Este 0 -- -- 86
2020-03-23 08:00:00 10.1 17 Nordeste 29 Este 0 -- -- 84
2020-03-23 07:00:00 8.8 12 Este 22 Nordeste 0 -- -- 88
2020-03-23 06:00:00 8.7 11 Nordeste 24 Nordeste 0 -- -- 88
2020-03-23 05:00:00 9.1 11 Nordeste 18 Nordeste 0 -- -- 87
2020-03-23 04:00:00 8.9 9 Nordeste 13 Nordeste 0 -- -- 88
2020-03-23 03:00:00 8.6 4 Nordeste 12 Este 0 -- -- 92
2020-03-23 02:00:00 9.8 0 Calma 9 Norte 0 -- -- 84
2020-03-23 01:00:00 10.4 9 Norte 15 Norte 0 -- -- 83
2020-03-23 00:00:00 10.2 4 Norte 10 Norte 0 -- -- 79
2020-03-22 23:00:00 10.5 4 Sur 8 Sudoeste 0 -- -- 81
2020-03-22 22:00:00 10.7 0 Calma 15 Sudeste 0 -- -- 86
2020-03-22 21:00:00 11 5 Norte 7 Norte 0 -- -- 80
2020-03-22 20:00:00 11.1 4 Nordeste 27 Nordeste 1 -- -- 85
2020-03-22 19:00:00 14.2 6 Este 14 Norte 0.2 -- -- 70
2020-03-22 18:00:00 16.2 9 Noroeste 15 Norte 0 -- -- 53
2020-03-22 17:00:00 16.1 5 Nordeste 14 Norte 0 -- -- 53
2020-03-22 16:00:00 15.3 5 Nordeste 17 Nordeste 0 -- -- 57
2020-03-22 15:00:00 14.8 12 Norte 21 Noroeste 0 -- -- 57
2020-03-22 14:00:00 14.4 8 Este 22 Sudeste 0 -- -- 63
2020-03-22 13:00:00 13.7 10 Este 27 Este 0 -- -- 66
2020-03-22 12:00:00 13.5 13 Este 24 Este 0 -- -- 65
2020-03-22 11:00:00 12 11 Este 28 Este 0 -- -- 73
2020-03-22 10:00:00 11.1 15 Este 26 Este 0 -- -- 77
2020-03-22 09:00:00 9 3 Este 15 Nordeste 0 -- -- 88
2020-03-22 08:00:00 7.7 8 Nordeste 15 Nordeste 0 -- -- 89
2020-03-22 07:00:00 6.9 5 Nordeste 9 Nordeste 0 -- -- 91
2020-03-22 06:00:00 7.3 6 Nordeste 18 Nordeste 0 -- -- 88
2020-03-22 05:00:00 8.1 12 Nordeste 21 Nordeste 0 -- -- 87
2020-03-22 04:00:00 8.2 9 Nordeste 18 Nordeste 0 -- -- 87
2020-03-22 03:00:00 8.6 11 Nordeste 18 Nordeste 0 -- -- 86
2020-03-22 02:00:00 8.9 10 Nordeste 15 Nordeste 0 -- -- 87
2020-03-22 01:00:00 8.9 7 Nordeste 11 Nordeste 0 -- -- 89
2020-03-22 00:00:00 9 4 Nordeste 9 Nordeste 0.2 -- -- 90
2020-03-21 23:00:00 9.2 4 Nordeste 8 Nordeste 0 -- -- 90
2020-03-21 22:00:00 9.3 3 Sur 9 Oeste 0 -- -- 88
2020-03-21 21:00:00 9.3 6 Oeste 21 Sur 0 -- -- 86
2020-03-21 20:00:00 10.6 8 Este 22 Este 0 -- -- 77
2020-03-21 19:00:00 11.5 14 Este 26 Este 0 -- -- 71
2020-03-21 18:00:00 12.5 15 Este 27 Este 0 -- -- 72
2020-03-21 17:00:00 12.3 15 Nordeste 26 Nordeste 0 -- -- 74
2020-03-21 16:00:00 11.4 16 Nordeste 27 Este 0.4 -- -- 80
2020-03-21 15:00:00 11 14 Este 22 Este 0.4 -- -- 84
2020-03-21 14:00:00 11.3 10 Este 17 Este 0 -- -- 80
2020-03-21 13:00:00 9.2 5 Nordeste 17 Este 0.6 -- -- 88
2020-03-21 12:00:00 9.4 10 Sudeste 15 Sudeste 0 -- -- 93
2020-03-21 11:00:00 8.5 7 Sudeste 17 Sudeste 1 -- -- 95
2020-03-21 10:00:00 7.8 11 Este 19 Este 0.6 -- -- 95
2020-03-21 09:00:00 7.7 9 Este 18 Este 0.6 -- -- 93
2020-03-21 08:00:00 7.9 10 Este 18 Este 2.2 -- -- 93
2020-03-21 07:00:00 8.3 6 Este 13 Sudoeste 2 -- -- 91
2020-03-21 06:00:00 8.7 9 Oeste 14 Sudoeste 3.6 -- -- 93
2020-03-21 05:00:00 9.1 2 Norte 13 Norte 1.8 -- -- 94
2020-03-21 04:00:00 9.2 9 Norte 15 Norte 0.4 -- -- 94
2020-03-21 03:00:00 9.3 8 Norte 13 Norte 0.6 -- -- 94
2020-03-21 02:00:00 9.2 3 Norte 23 Oeste 1.2 -- -- 95
2020-03-21 01:00:00 9.1 13 Oeste 45 Sudoeste 3 -- -- 95
2020-03-21 00:00:00 10.5 16 Sudoeste 34 Este 0.2 -- -- 93
2020-03-20 23:00:00 11.2 16 Sudoeste 34 Este 0 -- -- 92
2020-03-20 22:00:00 11.3 11 Nordeste 21 Este 0 -- -- 93
2020-03-20 21:00:00 11.2 9 Nordeste 14 Nordeste 1 -- -- 96
2020-03-20 20:00:00 11 0 Calma 28 Sudoeste 4.6 -- -- 95
2020-03-20 19:00:00 11.2 17 Sudoeste 26 Sudoeste 5.6 -- -- 93
2020-03-20 18:00:00 11.4 9 Nordeste 14 Nordeste 1.2 -- -- 91
2020-03-20 17:00:00 11.2 11 Nordeste 18 Este 0.6 -- -- 93
2020-03-20 16:00:00 11 14 Este 27 Este 2 -- -- 94
2020-03-20 15:00:00 11.2 14 Este 23 Este 1.8 -- -- 95
2020-03-20 14:00:00 11.1 11 Este 27 Este 0.4 -- -- 93
2020-03-20 13:00:00 11.1 16 Este 28 Nordeste 0 -- -- 90
2020-03-20 12:00:00 10.4 16 Este 33 Este 0 -- -- 92
2020-03-20 11:00:00 10.1 19 Este 39 Este 0.4 -- -- 91
2020-03-20 10:00:00 9.7 20 Este 40 Este 3.4 -- -- 93
2020-03-20 09:00:00 10 23 Este 38 Este 1.8 -- -- 91
2020-03-20 08:00:00 -- 28 Este 39 Este 0.8 -- -- --
2020-03-20 07:00:00 11.4 22 Este 44 Este 0 -- -- 80
2020-03-20 06:00:00 11.5 22 Este 41 Este 0 -- -- 79
2020-03-20 05:00:00 11.7 24 Este 50 Este 0 -- -- 77
2020-03-20 04:00:00 11.8 24 Este 37 Este 0 -- -- 76
2020-03-20 03:00:00 11.9 22 Este 40 Este 0 -- -- 75
2020-03-20 02:00:00 12.6 21 Este 32 Este 0 -- -- 72
2020-03-20 01:00:00 13.1 18 Este 31 Este 0 -- -- 69
2020-03-20 00:00:00 13.9 19 Este 35 Este 0 -- -- 65
2020-03-19 23:00:00 14.1 19 Este 31 Este 0 -- -- 63
2020-03-19 22:00:00 13.7 16 Nordeste 26 Este 0 -- -- 66
2020-03-19 21:00:00 13.9 13 Nordeste 21 Este 0 -- -- 64
2020-03-19 20:00:00 14.1 12 Nordeste 21 Este 0 -- -- 64
2020-03-19 19:00:00 14.9 17 Este 30 Nordeste 0 -- -- 62
2020-03-19 18:00:00 15.6 17 Este 33 Este 0 -- -- 60
2020-03-19 17:00:00 15.9 21 Este 38 Este 0 -- -- 58
2020-03-19 16:00:00 15.7 21 Este 53 Este 0 -- -- 59
2020-03-19 15:00:00 16.1 34 Este 51 Este 0 -- -- 52
2020-03-19 14:00:00 15.3 26 Este 44 Este 0 -- -- 57
2020-03-19 13:00:00 14 25 Este 45 Este 0 -- -- 64
2020-03-19 12:00:00 13.4 32 Este 47 Este 0 -- -- 64
2020-03-19 11:00:00 12.3 26 Este 43 Este 0 -- -- 68
2020-03-19 10:00:00 11.7 22 Este 36 Este 0 -- -- 69
2020-03-19 09:00:00 10.6 15 Este 33 Este 0 -- -- 69
2020-03-19 08:00:00 10.5 20 Nordeste 29 Este 0 -- -- 66
2020-03-19 07:00:00 10.7 18 Nordeste 31 Este 0 -- -- 66
2020-03-19 06:00:00 11.1 18 Este 31 Este 0 -- -- 66
2020-03-19 05:00:00 11.7 13 Este 33 Este 0 -- -- 65
2020-03-19 04:00:00 12.3 21 Este 40 Este 0 -- -- 64
2020-03-19 03:00:00 13.1 27 Este 47 Este 0 -- -- 64
2020-03-19 02:00:00 13.6 30 Este 48 Este 0 -- -- 64
2020-03-19 01:00:00 14.6 32 Este 46 Este 0 -- -- 61
2020-03-19 00:00:00 15.1 25 Este 44 Este 0 -- -- 62
2020-03-18 23:00:00 15.1 25 Este 38 Este 0 -- -- 61
2020-03-18 22:00:00 15 14 Este 33 Este 0 -- -- 57
2020-03-18 21:00:00 14.9 20 Este 33 Este 0 -- -- 62
2020-03-18 20:00:00 15.3 22 Este 39 Este 0 -- -- 62
2020-03-18 19:00:00 15.8 23 Este 45 Este 0 -- -- 58
2020-03-18 18:00:00 16.3 30 Este 47 Este 0 -- -- 57
2020-03-18 17:00:00 16.1 22 Este 33 Este 0 -- -- 57
2020-03-18 16:00:00 15.7 27 Este 47 Este 0 -- -- 57
2020-03-18 15:00:00 16.9 27 Este 55 Este 0 -- -- 57
2020-03-18 14:00:00 17.2 35 Este 65 Este 0 -- -- 55
2020-03-18 13:00:00 16.9 42 Este 66 Este 0 -- -- 54
2020-03-18 12:00:00 15.9 42 Este 66 Este 0 -- -- 57
2020-03-18 11:00:00 14.7 37 Este 67 Este 0 -- -- 62
2020-03-18 10:00:00 13.7 39 Este 61 Este 0 -- -- 64
2020-03-18 09:00:00 13 39 Este 60 Este 0 -- -- 65
2020-03-18 08:00:00 12.6 35 Este 58 Este 0 -- -- 67
2020-03-18 07:00:00 12.3 32 Este 57 Este 0 -- -- 70
2020-03-18 06:00:00 12.3 36 Este 54 Este 0 -- -- 72
2020-03-18 05:00:00 12.7 31 Este 52 Este 0 -- -- 71
2020-03-18 04:00:00 13.6 30 Este 55 Este 0 -- -- 71
2020-03-18 03:00:00 14.1 34 Este 50 Este 0 -- -- 70
2020-03-18 02:00:00 14.2 33 Este 54 Este 0 -- -- 70
2020-03-18 01:00:00 14.2 31 Este 48 Nordeste 0 -- -- 70
2020-03-18 00:00:00 14.4 26 Este 47 Este 0 -- -- 69
2020-03-17 23:00:00 14.7 27 Este 46 Este 0 -- -- 68
2020-03-17 22:00:00 14.7 15 Nordeste 29 Este 0 -- -- 67
2020-03-17 21:00:00 15.3 17 Nordeste 24 Nordeste 0 -- -- 61
2020-03-17 20:00:00 15 13 Nordeste 26 Este 0 -- -- 61
2020-03-17 19:00:00 16 14 Este 33 Este 0 -- -- 54
2020-03-17 18:00:00 16.6 24 Este 43 Este 0 -- -- 49
2020-03-17 17:00:00 16.6 23 Este 44 Este 0 -- -- 50
2020-03-17 16:00:00 16.6 24 Este 46 Sudeste 0 -- -- 49
2020-03-17 15:00:00 15.8 27 Este 55 Nordeste 0 -- -- 48
2020-03-17 14:00:00 14.7 29 Este 44 Este 0 -- -- 52
2020-03-17 13:00:00 13.6 28 Este 51 Este 0 -- -- 59
2020-03-17 12:00:00 12.3 33 Este 51 Este 0 -- -- 65
2020-03-17 11:00:00 10.7 29 Este 48 Este 0 -- -- 73
2020-03-17 10:00:00 8.9 30 Este 44 Nordeste 0 -- -- 73
2020-03-17 09:00:00 7.1 24 Nordeste 39 Nordeste 0 -- -- 78
2020-03-17 08:00:00 5.5 22 Nordeste 38 Nordeste 0 -- -- 82
2020-03-17 07:00:00 5.9 25 Nordeste 40 Nordeste 0 -- -- 80
2020-03-17 06:00:00 5.8 19 Nordeste 32 Nordeste 0 -- -- 80
2020-03-17 05:00:00 6 19 Nordeste 38 Nordeste 0 -- -- 78
2020-03-17 04:00:00 5.8 23 Nordeste 35 Nordeste 0 -- -- 79
2020-03-17 03:00:00 5.7 18 Nordeste 36 Nordeste 0 -- -- 81
2020-03-17 02:00:00 6 17 Nordeste 28 Nordeste 0 -- -- 80
2020-03-17 01:00:00 5.6 14 Este 26 Este 0 -- -- 83
2020-03-17 00:00:00 4.8 8 Nordeste 30 Norte 0 -- -- 91
2020-03-16 23:00:00 5.7 14 Norte 37 Norte 0.2 -- -- 86
2020-03-16 22:00:00 5.8 25 Norte 39 Norte 0 -- -- 87
2020-03-16 21:00:00 6 28 Norte 45 Norte 0 -- -- 87
2020-03-16 20:00:00 6.1 33 Norte 45 Norte 0.2 -- -- 88
2020-03-16 19:00:00 6.7 14 Norte 42 Norte 0.4 -- -- 86
2020-03-16 18:00:00 6.9 27 Norte 58 Noroeste 0.4 -- -- 83
2020-03-16 17:00:00 7.3 37 Norte 63 Norte 0.4 -- -- 79
2020-03-16 16:00:00 9 36 Norte 58 Norte 0 -- -- 62
2020-03-16 15:00:00 8.8 38 Norte 64 Norte 0 -- -- 62
2020-03-16 14:00:00 9 38 Norte 63 Noroeste 0 -- -- 61
2020-03-16 13:00:00 9.3 29 Norte 55 Norte 0 -- -- 57
2020-03-16 12:00:00 9.6 31 Norte 53 Norte 0 -- -- 57
2020-03-16 11:00:00 7.9 37 Norte 59 Noroeste 0 -- -- 61
2020-03-16 10:00:00 7.3 37 Norte 62 Noroeste 0 -- -- 63
2020-03-16 09:00:00 6.2 16 Noroeste 41 Norte 0 -- -- 68
2020-03-16 08:00:00 5.8 20 Noroeste 44 Noroeste 0 -- -- 68
2020-03-16 07:00:00 5.3 15 Noroeste 33 Noroeste 0 -- -- 68
2020-03-16 06:00:00 5.5 17 Noroeste 45 Oeste 0 -- -- 67
2020-03-16 05:00:00 5.3 23 Oeste 41 Oeste 0 -- -- 65
2020-03-16 04:00:00 5.7 20 Noroeste 43 Noroeste 0 -- -- 64
2020-03-16 03:00:00 5.6 16 Noroeste 48 Noroeste 0 -- -- 65
2020-03-16 02:00:00 6 22 Noroeste 47 Noroeste 0 -- -- 63
2020-03-16 01:00:00 6.4 24 Noroeste 39 Noroeste 0 -- -- 66
2020-03-16 00:00:00 7.2 19 Noroeste 45 Noroeste 0 -- -- 63
2020-03-15 23:00:00 8.6 28 Noroeste 48 Oeste 0 -- -- 60
2020-03-15 22:00:00 9.6 30 Noroeste 49 Oeste 0 -- -- 68
2020-03-15 21:00:00 11.3 24 Oeste 41 Oeste 0 -- -- 70
2020-03-15 20:00:00 13 18 Oeste 41 Oeste 0 -- -- 55
2020-03-15 19:00:00 14.8 28 Oeste 54 Oeste 0 -- -- 50
2020-03-15 18:00:00 17.5 28 Oeste 47 Oeste 0 -- -- 51
2020-03-15 17:00:00 18.4 37 Oeste 50 Oeste 0 -- -- 57
2020-03-15 16:00:00 18.8 37 Oeste 51 Oeste 0 -- -- 56
2020-03-15 15:00:00 20.2 23 Oeste 37 Oeste 0 -- -- 55
2020-03-15 14:00:00 21.4 16 Sudoeste 29 Sudoeste 0 -- -- 50
2020-03-15 13:00:00 20.4 12 Sudoeste 22 Sudoeste 0 -- -- 60
2020-03-15 12:00:00 18.5 8 Oeste 15 Sudoeste 0 -- -- 66
2020-03-15 11:00:00 16.4 3 Sur 11 Sudeste 0 -- -- 74
2020-03-15 10:00:00 14.3 2 Este 9 Nordeste 0 -- -- 83
2020-03-15 09:00:00 13.3 6 Nordeste 11 Nordeste 0 -- -- 84
2020-03-15 08:00:00 9.3 3 Norte 8 Oeste 0 -- -- 92
2020-03-15 07:00:00 11.7 0 Calma 7 Nordeste 0 -- -- 81
2020-03-15 06:00:00 13.1 0 Calma 7 Nordeste 0 -- -- 79
2020-03-15 05:00:00 11.7 3 Sudoeste 6 Nordeste 0 -- -- 79
2020-03-15 04:00:00 12.8 5 Nordeste 8 Nordeste 0 -- -- 77
2020-03-15 03:00:00 12.1 6 Nordeste 9 Nordeste 0 -- -- 77
2020-03-15 02:00:00 12.7 4 Oeste 8 Oeste 0 -- -- 75
2020-03-15 01:00:00 14.7 0 Calma 9 Norte 0 -- -- 65
2020-03-15 00:00:00 15 6 Noroeste 13 Noroeste 0 -- -- 67
2020-03-14 23:00:00 16.3 7 Norte 10 Norte 0 -- -- 63
2020-03-14 22:00:00 17.2 0 Calma 6 Oeste 0 -- -- 58
2020-03-14 21:00:00 17.6 0 Calma 5 Oeste 0 -- -- 57
2020-03-14 20:00:00 18.9 4 Oeste 9 Noroeste 0 -- -- 56
2020-03-14 19:00:00 22 7 Sudoeste 12 Sudoeste 0 -- -- 51
2020-03-14 18:00:00 23 5 Sur 11 Sudeste 0 -- -- 47
2020-03-14 17:00:00 23.1 5 Sur 17 Este 0 -- -- 45
2020-03-14 16:00:00 22.9 8 Sur 16 Este 0 -- -- 53
2020-03-14 15:00:00 21.8 7 Sudeste 17 Sudeste 0 -- -- 56
2020-03-14 14:00:00 21.1 9 Sudeste 18 Este 0 -- -- 58
2020-03-14 13:00:00 20.2 11 Sudeste 19 Este 0 -- -- 63
2020-03-14 12:00:00 18.9 12 Este 20 Este 0 -- -- 65
2020-03-14 11:00:00 16.9 8 Este 13 Sudeste 0 -- -- 71
2020-03-14 10:00:00 15 5 Sur 7 Sur 0 -- -- 74
2020-03-14 09:00:00 12 0 Calma 12 Este 0 -- -- 78
2020-03-14 08:00:00 12.9 9 Este 26 Nordeste 0 -- -- 68
2020-03-14 07:00:00 13.6 20 Norte 32 Norte 0 -- -- 66
2020-03-14 06:00:00 13.5 19 Norte 40 Norte 0 -- -- 67
2020-03-14 05:00:00 13.5 32 Norte 51 Norte 0 -- -- 66
2020-03-14 04:00:00 13.8 37 Norte 55 Norte 0 -- -- 65
2020-03-14 03:00:00 14 34 Norte 50 Norte 0 -- -- 66
2020-03-14 02:00:00 14.4 35 Norte 53 Norte 0 -- -- 66
2020-03-14 01:00:00 15.3 34 Norte 50 Norte 0 -- -- 65
2020-03-14 00:00:00 16.1 32 Norte 44 Norte 0 -- -- 65
2020-03-13 23:00:00 16.3 21 Norte 32 Norte 0 -- -- 65
2020-03-13 22:00:00 16.6 14 Norte 28 Norte 0 -- -- 65
2020-03-13 21:00:00 17.2 14 Norte 23 Noroeste 0 -- -- 64
2020-03-13 20:00:00 17.7 14 Noroeste 22 Noroeste 0 -- -- 65
2020-03-13 19:00:00 19.5 10 Noroeste 26 Oeste 0 -- -- 60
2020-03-13 18:00:00 21.4 14 Oeste 25 Oeste 0 -- -- 55
2020-03-13 17:00:00 21.4 11 Noroeste 21 Noroeste 0 -- -- 57
2020-03-13 16:00:00 20.9 11 Noroeste 22 Norte 0 -- -- 59
2020-03-13 15:00:00 20.7 12 Norte 20 Norte 0 -- -- 58
2020-03-13 14:00:00 18.9 14 Norte 22 Norte 0 -- -- 60
2020-03-13 13:00:00 18.2 11 Norte 22 Nordeste 0 -- -- 66
2020-03-13 12:00:00 16.9 15 Norte 28 Norte 0 -- -- 67
2020-03-13 11:00:00 15.5 15 Norte 27 Norte 0 -- -- 69
2020-03-13 10:00:00 13.5 10 Norte 23 Norte 0 -- -- 78
2020-03-13 09:00:00 10.6 7 Oeste 10 Oeste 0 -- -- 95
2020-03-13 08:00:00 10.5 0 Calma 7 Sudoeste 0 -- -- 93
2020-03-13 07:00:00 10.3 0 Calma 3 Este 0 -- -- 92
2020-03-13 06:00:00 10.6 0 Calma 5 Este 0 -- -- 91
2020-03-13 05:00:00 11.3 0 Calma 4 Sudeste 0 -- -- 88
2020-03-13 04:00:00 12.1 2 Sudeste 5 Nordeste 0 -- -- 86
2020-03-13 03:00:00 12.4 3 Este 6 Nordeste 0 -- -- 85
2020-03-13 02:00:00 12.7 2 Este 7 Nordeste 0 -- -- 82
2020-03-13 01:00:00 13.8 4 Sur 6 Sur 0 -- -- 79
2020-03-13 00:00:00 15.1 0 Calma 8 Sudoeste 0 -- -- 74
2020-03-12 23:00:00 15.5 0 Calma 6 Sudoeste 0 -- -- 72
2020-03-12 22:00:00 17 0 Calma 6 Noroeste 0 -- -- 67
2020-03-12 21:00:00 17.6 2 Sudoeste 8 Norte 0 -- -- 63
2020-03-12 20:00:00 19.3 2 Norte 12 Norte 0 -- -- 56
2020-03-12 19:00:00 21.4 7 Norte 11 Norte 0 -- -- 54
2020-03-12 18:00:00 23.1 5 Oeste 19 Sudoeste 0 -- -- 51
2020-03-12 17:00:00 25 13 Sudoeste 20 Sudoeste 0 -- -- 44
2020-03-12 16:00:00 25.4 9 Sudoeste 17 Sudoeste 0 -- -- 42
2020-03-12 15:00:00 24.3 6 Oeste 17 Sudeste 0 -- -- 43
2020-03-12 14:00:00 23.7 6 Sudeste 15 Sudeste 0 -- -- 48
2020-03-12 13:00:00 22.3 9 Sudeste 16 Este 0 -- -- 51
2020-03-12 12:00:00 21.7 9 Sudeste 14 Este 0 -- -- 53
2020-03-12 11:00:00 20.3 10 Este 18 Este 0 -- -- 57
2020-03-12 10:00:00 18.1 7 Este 13 Nordeste 0 -- -- 63
2020-03-12 09:00:00 17 7 Nordeste 17 Nordeste 0 -- -- 64
2020-03-12 08:00:00 15.7 9 Nordeste 15 Nordeste 0 -- -- 67
2020-03-12 07:00:00 15.2 6 Nordeste 19 Nordeste 0 -- -- 70
2020-03-12 06:00:00 15.9 10 Nordeste 21 Nordeste 0 -- -- 70
2020-03-12 05:00:00 16 12 Nordeste 19 Nordeste 0 -- -- 71
2020-03-12 04:00:00 17.2 13 Nordeste 20 Nordeste 0 -- -- 66
2020-03-12 03:00:00 18.7 5 Nordeste 13 Nordeste 0 -- -- 56
2020-03-12 02:00:00 19 10 Nordeste 16 Nordeste 0 -- -- 56
2020-03-12 01:00:00 19.1 5 Nordeste 10 Nordeste 0 -- -- 50
2020-03-12 00:00:00 17.6 4 Nordeste 8 Nordeste 0 -- -- 54
2020-03-11 23:00:00 20.1 4 Nordeste 12 Nordeste 0 -- -- 42
2020-03-11 22:00:00 20.8 10 Nordeste 13 Nordeste 0 -- -- 43
2020-03-11 21:00:00 19.8 9 Nordeste 15 Nordeste 0 -- -- 57
2020-03-11 20:00:00 19.3 7 Nordeste 13 Nordeste 0 -- -- 65
2020-03-11 19:00:00 21.1 6 Nordeste 9 Nordeste 0 -- -- 59
2020-03-11 18:00:00 22.8 5 Nordeste 9 Nordeste 0 -- -- 56
2020-03-11 17:00:00 23.7 6 Este 8 Este 0 -- -- 52
2020-03-11 16:00:00 24.2 0 Calma 18 Sur 0 -- -- 50
2020-03-11 15:00:00 24.4 4 Oeste 13 Sudeste 0 -- -- 51
2020-03-11 14:00:00 22.8 4 Sudeste 16 Sudeste 0 -- -- 54
2020-03-11 13:00:00 22.1 8 Sudeste 15 Nordeste 0 -- -- 55
2020-03-11 12:00:00 20.2 10 Este 15 Este 0 -- -- 56
2020-03-11 11:00:00 18.5 9 Este 13 Este 0 -- -- 63
2020-03-11 10:00:00 17.2 2 Sudeste 8 Este 0 -- -- 66
2020-03-11 09:00:00 14.6 4 Nordeste 14 Nordeste 0 -- -- 69
2020-03-11 08:00:00 12.8 10 Nordeste 14 Nordeste 0 -- -- 73
2020-03-11 07:00:00 12.1 5 Nordeste 10 Nordeste 0 -- -- 74
2020-03-11 06:00:00 11.4 0 Calma 9 Nordeste 0 -- -- 79
2020-03-11 05:00:00 12.2 4 Nordeste 8 Nordeste 0 -- -- 75
2020-03-11 04:00:00 13 3 Este 5 Nordeste 0 -- -- 71
2020-03-11 03:00:00 13.3 3 Nordeste 5 Nordeste 0 -- -- 71
2020-03-11 02:00:00 14.1 0 Calma 2 Sudoeste 0 -- -- 67
2020-03-11 01:00:00 15.9 2 Oeste 4 Nordeste 0 -- -- 59
2020-03-11 00:00:00 16.5 0 Calma 3 Norte 0 -- -- 57
2020-03-10 23:00:00 17.5 0 Calma 3 Oeste 0 -- -- 53
2020-03-10 22:00:00 16.9 0 Calma 6 Noroeste 0 -- -- 54
2020-03-10 21:00:00 17.7 0 Calma 4 Noroeste 0 -- -- 55
2020-03-10 20:00:00 19 0 Calma 8 Sudoeste 0 -- -- 53
2020-03-10 19:00:00 22.1 8 Sudoeste 12 Sudoeste 0 -- -- 47
2020-03-10 18:00:00 23.4 7 Sudoeste 14 Sudoeste 0 -- -- 38
2020-03-10 17:00:00 23.5 9 Oeste 17 Sur 0 -- -- 38
2020-03-10 16:00:00 22.3 7 Sur 15 Sur 0 -- -- 39
2020-03-10 15:00:00 21.4 7 Sudeste 15 Sudoeste 0 -- -- 40
2020-03-10 14:00:00 20.7 9 Sudoeste 15 Sudoeste 0 -- -- 37
2020-03-10 13:00:00 19.1 6 Sur 12 Sur 0 -- -- 44
2020-03-10 12:00:00 17.9 4 Sur 8 Sudoeste 0 -- -- 56
2020-03-10 11:00:00 15.1 3 Oeste 7 Sudoeste 0 -- -- 61
2020-03-10 10:00:00 12.1 3 Sur 8 Oeste 0 -- -- 69
2020-03-10 09:00:00 9.3 4 Este 12 Oeste 0 -- -- 76
2020-03-10 08:00:00 8.1 4 Oeste 14 Nordeste 0 -- -- 72
2020-03-10 07:00:00 9.3 4 Nordeste 13 Nordeste 0 -- -- 65
2020-03-10 06:00:00 11.3 9 Nordeste 15 Nordeste 0 -- -- 57
2020-03-10 05:00:00 13.2 8 Nordeste 27 Norte 0 -- -- 49
2020-03-10 04:00:00 13.5 18 Norte 25 Norte 0 -- -- 47
2020-03-10 03:00:00 11.8 3 Sudeste 35 Norte 0 -- -- 54
2020-03-10 02:00:00 13.9 21 Norte 39 Norte 0 -- -- 46
2020-03-10 01:00:00 14.2 30 Norte 44 Norte 0 -- -- 46
2020-03-10 00:00:00 13.9 27 Norte 44 Norte 0 -- -- 46